Jennerstown, PA (15547)

1:31 PM EDT on July 30, 2016 (GMT -0400)
Ridgeview Rd. | | Change Station

Elev 2864 ft 40.20 °N, 79.12 °W | Updated 13 minutes ago

Light Rain
Light Rain
72.3 °F
Feels Like 71 °F
N
1.7
Wind Variable Wind from SSE

Today
High -- | Low -- °F
--% Chance of Precip.
Yesterday
High -- | Low -- °F
Precip. -- in
Pressure 30.04 in
Visibility 8.0 miles
Clouds Scattered Clouds 7000 ft
Overcast 9000 ft
Heat Index 71 °F
Dew Point 68 °F
Humidity 86%
Rainfall 0.00 in
Snow Depth Not available.
6:12 AM 8:31 PM
Waning Crescent, 12% visible
SPECI KJST 301725Z AUTO 14003KT 8SM -RA SCT070 OVC090 21/19 A3004 RMK AO2 LTG DSNT S TSE00 P0000 T02060189
Pressure 30.04 in
Visibility 8.0 miles
Clouds Scattered Clouds 7000 ft
Overcast 9000 ft
Heat Index 71 °F
Dew Point 68 °F
Humidity 86%
Rainfall 0.00 in
Snow Depth Not available.
6:12 AM 8:31 PM
Waning Crescent, 12% visible
SPECI KJST 301725Z AUTO 14003KT 8SM -RA SCT070 OVC090 21/19 A3004 RMK AO2 LTG DSNT S TSE00 P0000 T02060189

10-Day Weather Forecast

Almanac

Astronomy

Jul. 30, 2016 Rise Set
Actual Time
Civil Twilight
Nautical Twilight
Astronomical Twilight
Moon
Length of Visible Light
Length of Day
Tomorrow will be .
, % of the Moon is Illuminated

Today's Extremes

State Highs State Lows

Community

WunderPhotos

Upload Photos

1,928,600 photos uploaded!

WunderBlog® & News

Nearby

Air Quality

  Air Quality AQ Index Pollutant
Not available.

Snow Depth

Station Depth Elevation

Earthquake Activity

City Distance Mag. Time & Date
Minimum magnitude displayed is 2.5.

Coastal Water Temperatures

Place Temperature

Stations

Nearby Weather Stations

Station Location Temp. Windchill Dew Point Humidity Wind Precip. Elev Updated Type
                   

Watches & Warnings

There are currently no watches in effect.